Kaibeto, Arizona
Current Conditions -  °F | °C
As of 6:04 AM on Thursday 18 Dec 2014 (Local Time) from KPGA Reporting Station
Haze Haze  
Wind Chill: 37°   Ceiling: 10000
Heat Index: 37°   Visibility: 6mi
Dew Point: 33°   Wind: 3mph
Humidity: 86%   Direction: 190°S
Pressure: 30.1"   Gusts: NA
Location:  36.4905°N, 111.31°W
Report Text: KPGA 181304Z AUTO 19003KT 6SM BR FEW005 OVC100 03/01 A3010 RMK AO2 T00280006 TSNO
Loading
Personal Weather Stations






























Interactive Weather Map New forecast layout! Learn more

10-Day Weather Forecast

Advertisements
Track Severe Weather on mobile